createdAt,value
2023-04-19T00:00:28.167Z,23
2023-04-19T00:05:46.313Z,23
2023-04-19T00:11:04.501Z,23
2023-04-19T00:16:22.984Z,23
2023-04-19T00:21:41.221Z,23
2023-04-19T00:26:59.363Z,23
2023-04-19T00:32:17.595Z,23
2023-04-19T00:37:35.887Z,23
2023-04-19T00:42:54.261Z,23
2023-04-19T00:48:12.807Z,23
2023-04-19T00:53:31.168Z,23
2023-04-19T00:58:49.526Z,23.1
2023-04-19T01:03:52.466Z,23.1
2023-04-19T01:09:11.453Z,23.1
2023-04-19T01:14:29.831Z,23
2023-04-19T01:19:48.188Z,23.1
2023-04-19T01:25:06.531Z,23.1
2023-04-19T01:30:24.889Z,23.1
2023-04-19T01:35:43.066Z,23.1
2023-04-19T01:41:01.575Z,23.1
2023-04-19T01:46:19.999Z,23.1
2023-04-19T01:51:38.603Z,23.1
2023-04-19T01:56:41.514Z,23.1
2023-04-19T02:02:00.082Z,23.1
2023-04-19T02:07:18.494Z,23.1
2023-04-19T02:12:36.817Z,23.1
2023-04-19T02:17:55.247Z,23.1
2023-04-19T02:23:13.602Z,23.1
2023-04-19T02:28:31.861Z,23.1
2023-04-19T02:33:50.214Z,23.1
2023-04-19T02:39:08.224Z,23.1
2023-04-19T02:44:26.733Z,23.1
2023-04-19T02:49:44.949Z,23.1
2023-04-19T02:55:03.190Z,23.1
2023-04-19T03:00:21.538Z,23.1
2023-04-19T03:05:39.700Z,23.1
2023-04-19T03:10:58.013Z,23.1
2023-04-19T03:16:16.586Z,23.1
2023-04-19T03:21:35.090Z,23.1
2023-04-19T03:26:53.319Z,23.2
2023-04-19T03:32:11.522Z,23.2
2023-04-19T03:37:29.684Z,23.2
2023-04-19T03:42:48.394Z,23.2
2023-04-19T03:48:06.783Z,23.2
2023-04-19T03:53:25.441Z,23.2
2023-04-19T03:58:43.595Z,23.2
2023-04-19T04:04:05.380Z,23.2
2023-04-19T04:09:23.915Z,23.1
2023-04-19T04:14:42.100Z,23.1
2023-04-19T04:20:00.735Z,23.1
2023-04-19T04:25:22.947Z,23.1
2023-04-19T04:30:41.633Z,23.1
2023-04-19T04:36:00.046Z,23.1
2023-04-19T04:41:18.234Z,22.8
2023-04-19T04:46:37.726Z,22.5
2023-04-19T04:51:56.149Z,22.5
2023-04-19T04:57:14.533Z,22.4
2023-04-19T05:02:33.216Z,22.4
2023-04-19T05:07:51.761Z,22.4
2023-04-19T05:13:10.116Z,22.4
2023-04-19T05:18:28.253Z,22.5
2023-04-19T05:23:46.588Z,22.5
2023-04-19T05:29:05.100Z,22.5
2023-04-19T05:34:23.672Z,22.5
2023-04-19T05:39:44.870Z,22.5
2023-04-19T05:45:06.216Z,22.5
2023-04-19T05:50:24.612Z,22.5
2023-04-19T05:55:42.985Z,22.5
2023-04-19T06:01:01.142Z,22.5
2023-04-19T06:11:52.181Z,22.6
2023-04-19T06:17:10.466Z,22.6
2023-04-19T06:22:29.033Z,22.6
2023-04-19T06:27:47.795Z,22.6
2023-04-19T07:12:00.389Z,22.7
2023-04-19T07:17:22.318Z,22.7
2023-04-19T07:22:40.742Z,22.7
2023-04-19T07:27:59.409Z,22.7
2023-04-19T07:33:17.801Z,22.7
2023-04-19T07:38:36.106Z,22.7
2023-04-19T07:43:54.267Z,22.8
2023-04-19T07:49:12.519Z,22.8
2023-04-19T07:54:30.956Z,22.8
2023-04-19T07:59:49.597Z,22.8
2023-04-19T08:05:08.691Z,22.8
2023-04-19T08:10:27.486Z,22.8
2023-04-19T08:21:49.990Z,22.8
2023-04-19T08:27:08.351Z,22.8
2023-04-19T08:32:26.747Z,22.8
2023-04-19T08:37:46.175Z,22.8
2023-04-19T08:43:04.435Z,22.8
2023-04-19T08:48:22.608Z,22.8
2023-04-19T08:53:41.602Z,22.8
2023-04-19T08:59:20.150Z,22.8
2023-04-19T09:04:40.150Z,22.8
2023-04-19T09:10:04.279Z,22.8
2023-04-19T09:15:23.447Z,22.8
2023-04-19T09:20:41.989Z,22.8
2023-04-19T09:26:23.646Z,22.9
2023-04-19T09:31:52.494Z,22.9
2023-04-19T09:37:32.847Z,22.9
2023-04-19T09:44:02.239Z,22.9
2023-04-19T09:49:54.920Z,23
2023-04-19T09:55:28.077Z,23
2023-04-19T10:01:11.154Z,23
2023-04-19T10:07:19.127Z,23
2023-04-19T10:13:19.489Z,23
2023-04-19T10:18:41.939Z,23
2023-04-19T10:24:00.136Z,23.1
2023-04-19T10:29:18.623Z,23.1
2023-04-19T10:34:37.107Z,23.1
2023-04-19T10:39:55.303Z,23.1
2023-04-19T10:45:13.963Z,23.1
2023-04-19T10:50:32.397Z,23.1
2023-04-19T10:55:50.977Z,23.1
2023-04-19T11:01:09.402Z,23.1
2023-04-19T11:06:27.554Z,23.2
2023-04-19T11:11:46.150Z,23.2
2023-04-19T11:17:04.793Z,23.2
2023-04-19T11:22:23.531Z,23.2
2023-04-19T11:27:42.239Z,23.2
2023-04-19T11:33:00.833Z,23.2
2023-04-19T11:38:19.391Z,23.2
2023-04-19T11:43:37.720Z,23.2
2023-04-19T11:48:56.130Z,23.2
2023-04-19T11:54:15.021Z,23.2
2023-04-19T11:59:34.173Z,23.2
2023-04-19T12:04:52.673Z,23.2
2023-04-19T12:10:11.350Z,23.2
2023-04-19T12:15:29.733Z,23.2
2023-04-19T12:20:48.580Z,23.2
2023-04-19T12:26:06.695Z,23.2
2023-04-19T12:31:25.160Z,23.2
2023-04-19T12:36:44.015Z,23.2
2023-04-19T12:42:02.243Z,23.2
2023-04-19T12:47:20.704Z,23.2
2023-04-19T12:52:39.148Z,23.2
2023-04-19T12:57:57.514Z,23.2
2023-04-19T13:03:16.323Z,23.2
2023-04-19T13:08:47.675Z,23.2
2023-04-19T13:14:09.220Z,23.2
2023-04-19T13:19:27.161Z,23.2
2023-04-19T13:24:45.369Z,23.2
2023-04-19T13:30:03.863Z,23.1
2023-04-19T13:35:22.230Z,23.1
2023-04-19T13:40:41.734Z,23.1
2023-04-19T13:46:00.139Z,23.1
2023-04-19T13:51:18.296Z,23.1
2023-04-19T13:56:36.702Z,23.1
2023-04-19T14:01:55.385Z,23.1
2023-04-19T14:07:14.332Z,23.1
2023-04-19T14:12:32.477Z,23.1
2023-04-19T14:17:50.821Z,23.1
2023-04-19T14:23:09.011Z,23.1
2023-04-19T14:28:30.558Z,23.1
2023-04-19T14:33:48.821Z,23.1
2023-04-19T14:39:07.333Z,23.1
2023-04-19T14:44:27.015Z,23.1
2023-04-19T14:49:45.376Z,23.1
2023-04-19T14:55:03.727Z,23.1
2023-04-19T15:00:21.955Z,23.1
2023-04-19T15:05:40.274Z,23.1
2023-04-19T15:10:58.555Z,23.1
2023-04-19T15:16:17.044Z,23.1
2023-04-19T15:21:35.253Z,23
2023-04-19T15:26:54.066Z,23
2023-04-19T15:32:12.408Z,23
2023-04-19T15:37:30.454Z,23
2023-04-19T15:42:49.828Z,23
2023-04-19T15:48:08.147Z,23
2023-04-19T15:53:26.759Z,23
2023-04-19T15:58:45.082Z,23
2023-04-19T16:04:04.111Z,22.9
2023-04-19T16:09:22.966Z,22.9
2023-04-19T16:14:41.445Z,22.9
2023-04-19T16:19:59.803Z,22.9
2023-04-19T16:25:18.446Z,23
2023-04-19T16:30:36.651Z,23
2023-04-19T16:35:55.121Z,23
2023-04-19T16:41:13.789Z,23
2023-04-19T16:46:32.290Z,23
2023-04-19T16:51:50.979Z,23
2023-04-19T16:57:09.272Z,23
2023-04-19T17:02:28.268Z,23.1
2023-04-19T17:07:46.815Z,23.1
2023-04-19T17:13:05.302Z,23.1
2023-04-19T17:18:23.426Z,23.2
2023-04-19T17:23:42.224Z,23.2
2023-04-19T17:29:02.534Z,23.2
2023-04-19T17:34:20.873Z,23.2
2023-04-19T17:39:40.650Z,23.2
2023-04-19T17:44:59.310Z,23.2
2023-04-19T17:50:17.627Z,23.2
2023-04-19T17:55:36.175Z,23.1
2023-04-19T18:00:54.998Z,23.1
2023-04-19T18:06:13.504Z,23.1
2023-04-19T18:11:31.884Z,23.1
2023-04-19T18:16:50.375Z,23.1
2023-04-19T18:22:08.905Z,23.1
2023-04-19T18:27:27.081Z,23.1
2023-04-19T18:32:45.484Z,23.1
2023-04-19T18:38:03.819Z,23.1
2023-04-19T18:43:22.260Z,23.1
2023-04-19T18:48:40.430Z,23.1
2023-04-19T18:53:59.146Z,23.1
2023-04-19T18:59:17.995Z,23.1
2023-04-19T19:04:51.861Z,23
2023-04-19T19:10:41.233Z,23
2023-04-19T19:16:19.931Z,23
2023-04-19T19:21:38.664Z,23
2023-04-19T19:27:12.463Z,23
2023-04-19T19:32:33.878Z,23
2023-04-19T19:37:53.220Z,23
2023-04-19T19:43:11.771Z,23
2023-04-19T19:48:32.481Z,23
2023-04-19T19:53:58.907Z,23
2023-04-19T19:59:20.287Z,23
2023-04-19T20:04:42.834Z,23
2023-04-19T20:10:01.281Z,22.9
2023-04-19T20:15:19.693Z,22.9
2023-04-19T20:20:38.092Z,22.9
2023-04-19T20:25:56.367Z,22.9
2023-04-19T20:31:15.094Z,22.9
2023-04-19T20:36:33.591Z,22.9
2023-04-19T20:41:54.691Z,22.9
2023-04-19T20:47:13.080Z,22.9
2023-04-19T20:52:31.261Z,22.9
2023-04-19T20:57:49.629Z,22.9
2023-04-19T21:03:08.658Z,22.9
2023-04-19T21:08:27.498Z,22.9
2023-04-19T21:13:45.942Z,22.9
2023-04-19T21:19:04.369Z,22.9
2023-04-19T21:24:22.589Z,22.9
2023-04-19T21:29:40.640Z,22.9
2023-04-19T21:34:58.833Z,22.9
2023-04-19T21:40:17.390Z,22.9
2023-04-19T21:45:35.920Z,22.9
2023-04-19T21:50:54.443Z,22.9
2023-04-19T21:56:13.040Z,22.9
2023-04-19T22:01:31.485Z,22.9
2023-04-19T22:06:49.613Z,22.9
2023-04-19T22:12:07.970Z,22.9
2023-04-19T22:17:25.973Z,22.9
2023-04-19T22:22:44.077Z,22.9
2023-04-19T22:28:02.508Z,22.9
2023-04-19T22:33:23.585Z,22.9
2023-04-19T22:38:41.962Z,22.9
2023-04-19T22:44:00.290Z,22.9
2023-04-19T22:49:19.481Z,22.9
2023-04-19T22:54:37.547Z,22.9
2023-04-19T22:59:55.865Z,22.9
2023-04-19T23:05:14.017Z,22.9
2023-04-19T23:10:32.026Z,22.9
2023-04-19T23:15:50.432Z,22.9
2023-04-19T23:21:08.904Z,22.9
2023-04-19T23:26:27.324Z,22.9
2023-04-19T23:31:46.211Z,22.9
2023-04-19T23:37:05.200Z,22.9
2023-04-19T23:42:23.527Z,22.9
2023-04-19T23:47:41.853Z,22.9
2023-04-19T23:53:00.325Z,22.9
2023-04-19T23:58:18.881Z,22.9
